createdAt,value
2018-05-18T00:00:58.422Z,88.21
2018-05-18T00:05:51.719Z,88.56
2018-05-18T00:10:45.041Z,88.56
2018-05-18T00:15:38.365Z,88.32
2018-05-18T00:20:31.687Z,88.50
2018-05-18T00:25:25.779Z,88.54
2018-05-18T00:30:19.832Z,88.20
2018-05-18T00:35:13.130Z,87.72
2018-05-18T00:40:06.444Z,87.57
2018-05-18T00:44:59.747Z,87.62
2018-05-18T00:49:53.815Z,88.13
2018-05-18T00:54:47.880Z,88.15
2018-05-18T00:59:41.176Z,87.93
2018-05-18T01:04:35.272Z,87.76
2018-05-18T01:09:29.340Z,87.90
2018-05-18T01:14:22.644Z,88.23
2018-05-18T01:19:16.776Z,88.15
2018-05-18T01:24:10.076Z,87.49
2018-05-18T01:29:03.384Z,88.04
2018-05-18T01:33:56.691Z,87.70
2018-05-18T01:38:50.017Z,87.32
2018-05-18T01:43:43.326Z,87.38
2018-05-18T01:48:37.446Z,87.85
2018-05-18T01:53:31.486Z,87.90
2018-05-18T01:58:24.783Z,87.64
2018-05-18T02:03:18.877Z,87.89
2018-05-18T02:08:12.178Z,87.51
2018-05-18T02:13:05.479Z,87.90
2018-05-18T02:17:58.778Z,88.28
2018-05-18T02:22:52.106Z,88.17
2018-05-18T02:27:45.417Z,87.32
2018-05-18T02:32:38.713Z,87.66
2018-05-18T02:37:32.027Z,87.46
2018-05-18T02:42:26.110Z,87.57
2018-05-18T02:47:19.418Z,87.69
2018-05-18T02:52:12.720Z,87.44
2018-05-18T02:57:06.014Z,87.59
2018-05-18T03:01:59.390Z,87.56
2018-05-18T03:06:52.641Z,87.44
2018-05-18T03:11:45.933Z,87.63
2018-05-18T03:16:39.238Z,87.17
2018-05-18T03:21:32.518Z,87.60
2018-05-18T03:26:25.815Z,86.83
2018-05-18T03:31:19.869Z,87.46
2018-05-18T03:36:13.187Z,87.80
2018-05-18T03:41:07.264Z,87.68
2018-05-18T03:46:00.928Z,87.68
2018-05-18T03:50:54.219Z,87.65
2018-05-18T03:55:47.527Z,87.61
2018-05-18T04:00:41.574Z,87.82
2018-05-18T04:05:52.502Z,87.75
2018-05-18T04:10:46.603Z,87.64
2018-05-18T04:15:40.663Z,87.69
2018-05-18T04:20:33.977Z,87.51
2018-05-18T04:25:28.011Z,87.35
2018-05-18T04:30:21.379Z,87.15
2018-05-18T04:35:14.619Z,87.46
2018-05-18T04:40:08.679Z,87.41
2018-05-18T04:45:01.992Z,86.83
2018-05-18T04:49:56.060Z,86.76
2018-05-18T04:54:49.366Z,86.93
2018-05-18T04:59:43.428Z,86.62
2018-05-18T05:04:36.734Z,86.64
2018-05-18T05:09:30.798Z,86.31
2018-05-18T05:14:24.115Z,85.55
2018-05-18T05:19:18.175Z,84.99
2018-05-18T05:24:11.473Z,84.56
2018-05-18T05:29:04.758Z,83.51
2018-05-18T05:33:58.058Z,84.18
2018-05-18T05:38:51.345Z,83.76
2018-05-18T05:43:45.412Z,82.98
2018-05-18T05:48:39.480Z,81.71
2018-05-18T05:53:34.016Z,82.13
2018-05-18T05:58:27.379Z,81.91
2018-05-18T06:03:20.607Z,80.16
2018-05-18T06:08:13.905Z,80.56
2018-05-18T06:13:07.238Z,80.50
2018-05-18T06:18:00.535Z,80.91
2018-05-18T06:22:53.823Z,81.51
2018-05-18T06:27:47.133Z,81.25
2018-05-18T06:32:41.193Z,80.79
2018-05-18T06:37:34.508Z,80.96
2018-05-18T06:42:28.567Z,81.36
2018-05-18T06:47:21.867Z,78.00
2018-05-18T06:52:15.163Z,78.81
2018-05-18T06:57:08.527Z,76.40
2018-05-18T07:02:02.586Z,78.01
2018-05-18T07:06:55.888Z,77.56
2018-05-18T07:11:49.217Z,78.59
2018-05-18T07:16:42.488Z,77.53
2018-05-18T07:21:35.799Z,76.98
2018-05-18T07:26:29.362Z,75.96
2018-05-18T07:31:22.679Z,74.47
2018-05-18T07:36:16.077Z,75.41
2018-05-18T07:41:09.384Z,76.34
2018-05-18T07:46:02.696Z,74.41
2018-05-18T07:50:56.003Z,76.10
2018-05-18T07:55:50.920Z,73.54
2018-05-18T08:00:44.249Z,73.98
2018-05-18T08:05:37.565Z,73.49
2018-05-18T08:10:30.867Z,71.42
2018-05-18T08:15:24.175Z,72.38
2018-05-18T08:20:17.473Z,71.03
2018-05-18T08:25:10.787Z,68.61
2018-05-18T08:30:04.111Z,67.22
2018-05-18T08:34:59.051Z,62.25
2018-05-18T08:39:52.384Z,59.74
2018-05-18T08:44:45.704Z,62.05
2018-05-18T08:49:39.019Z,65.00
2018-05-18T08:54:32.355Z,65.65
2018-05-18T08:59:25.668Z,67.21
2018-05-18T09:04:19.027Z,64.66
2018-05-18T09:09:12.394Z,60.50
2018-05-18T09:14:05.704Z,60.17
2018-05-18T09:18:59.777Z,60.25
2018-05-18T09:23:53.082Z,60.81
2018-05-18T09:28:46.670Z,63.74
2018-05-18T09:33:40.774Z,61.27
2018-05-18T09:38:34.083Z,63.52
2018-05-18T09:43:27.390Z,63.67
2018-05-18T09:48:20.700Z,59.92
2018-05-18T09:53:14.029Z,59.70
2018-05-18T09:58:07.354Z,58.59
2018-05-18T10:03:00.663Z,60.24
2018-05-18T10:07:53.991Z,60.71
2018-05-18T10:12:47.288Z,61.46
2018-05-18T10:17:40.595Z,64.14
2018-05-18T10:22:33.913Z,66.04
2018-05-18T10:27:28.004Z,62.32
2018-05-18T10:32:22.082Z,61.12
2018-05-18T10:37:15.382Z,58.33
2018-05-18T10:42:09.470Z,56.72
2018-05-18T10:47:03.520Z,57.47
2018-05-18T10:51:56.852Z,55.61
2018-05-18T10:56:50.925Z,57.01
2018-05-18T11:01:44.215Z,55.29
2018-05-18T11:06:37.519Z,53.20
2018-05-18T11:11:30.823Z,52.51
2018-05-18T11:16:24.129Z,54.27
2018-05-18T11:21:17.434Z,52.32
2018-05-18T11:26:11.954Z,56.40
2018-05-18T11:31:05.171Z,55.44
2018-05-18T11:35:58.493Z,50.50
2018-05-18T11:40:51.794Z,53.44
2018-05-18T11:45:45.088Z,52.83
2018-05-18T11:50:38.388Z,54.18
2018-05-18T11:55:31.692Z,55.80
2018-05-18T12:00:24.987Z,54.66
2018-05-18T12:05:18.283Z,55.93
2018-05-18T12:10:12.936Z,54.54
2018-05-18T12:15:06.248Z,51.36
2018-05-18T12:20:00.297Z,48.84
2018-05-18T12:24:53.597Z,52.40
2018-05-18T12:29:46.908Z,55.34
2018-05-18T12:34:40.269Z,53.14
2018-05-18T12:44:40.834Z,51.67
2018-05-18T12:49:40.338Z,56.27
2018-05-18T12:54:34.383Z,48.90
2018-05-18T12:59:27.788Z,48.82
2018-05-18T13:04:21.009Z,49.06
2018-05-18T13:09:15.199Z,45.71
2018-05-18T13:14:09.286Z,44.98
2018-05-18T13:19:02.577Z,42.00
2018-05-18T13:23:56.852Z,46.48
2018-05-18T13:28:50.156Z,42.45
2018-05-18T13:33:44.211Z,43.44
2018-05-18T13:38:37.518Z,43.47
2018-05-18T13:43:30.840Z,42.73
2018-05-18T13:48:24.227Z,45.97
2018-05-18T13:53:17.495Z,47.05
2018-05-18T13:58:10.789Z,48.38
2018-05-18T14:03:04.102Z,45.80
2018-05-18T14:07:57.405Z,47.94
2018-05-18T14:12:50.695Z,49.50
2018-05-18T14:17:43.997Z,48.05
2018-05-18T14:22:38.103Z,45.82
2018-05-18T14:27:32.191Z,44.81
2018-05-18T14:32:25.483Z,46.92
2018-05-18T14:37:18.783Z,45.87
2018-05-18T14:42:12.089Z,49.32
2018-05-18T14:47:05.410Z,43.06
2018-05-18T14:51:58.711Z,43.49
2018-05-18T14:56:52.009Z,46.44
2018-05-18T15:01:46.077Z,48.34
2018-05-18T15:06:39.344Z,45.79
2018-05-18T15:11:32.649Z,43.81
2018-05-18T15:16:26.813Z,42.60
2018-05-18T15:21:20.821Z,43.59
2018-05-18T15:26:14.130Z,43.66
2018-05-18T15:31:08.184Z,42.64
2018-05-18T15:36:01.482Z,41.61
2018-05-18T15:40:54.783Z,43.65
2018-05-18T15:45:48.186Z,45.47
2018-05-18T15:50:41.497Z,43.15
2018-05-18T15:55:34.793Z,46.29
2018-05-18T16:00:28.938Z,44.11
2018-05-18T16:05:22.296Z,45.04
2018-05-18T16:10:15.616Z,47.42
2018-05-18T16:15:09.280Z,50.02
2018-05-18T16:20:02.589Z,50.78
2018-05-18T16:24:55.905Z,51.36
2018-05-18T16:29:49.976Z,50.87
2018-05-18T16:34:44.036Z,51.17
2018-05-18T16:39:37.334Z,53.37
2018-05-18T16:44:30.624Z,53.34
2018-05-18T16:49:23.959Z,52.86
2018-05-18T16:54:17.272Z,54.87
2018-05-18T16:59:10.584Z,53.80
2018-05-18T17:04:03.865Z,53.61
2018-05-18T17:08:57.175Z,54.21
2018-05-18T17:13:50.487Z,53.20
2018-05-18T17:18:44.587Z,53.78
2018-05-18T17:23:37.899Z,54.99
2018-05-18T17:28:31.195Z,56.25
2018-05-18T17:33:24.514Z,54.16
2018-05-18T17:38:18.565Z,56.73
2018-05-18T17:43:11.851Z,56.32
2018-05-18T17:48:05.170Z,54.36
2018-05-18T17:52:59.233Z,57.02
2018-05-18T17:57:52.533Z,58.35
2018-05-18T18:02:46.587Z,57.70
2018-05-18T18:07:39.889Z,57.42
2018-05-18T18:12:33.187Z,58.81
2018-05-18T18:17:27.239Z,59.15
2018-05-18T18:22:20.627Z,60.33
2018-05-18T18:27:14.639Z,59.86
2018-05-18T18:32:07.942Z,60.42
2018-05-18T18:41:59.467Z,61.06
2018-05-18T18:46:52.782Z,63.78
2018-05-18T18:51:46.848Z,63.60
2018-05-18T18:56:40.144Z,63.60
2018-05-18T19:01:33.523Z,63.14
2018-05-18T19:06:27.587Z,62.92
2018-05-18T19:11:20.925Z,64.26
2018-05-18T19:16:14.226Z,64.01
2018-05-18T19:21:08.356Z,64.83
2018-05-18T19:26:01.665Z,65.73
2018-05-18T19:30:56.206Z,64.62
2018-05-18T19:35:49.507Z,65.69
2018-05-18T19:40:42.805Z,67.05
2018-05-18T19:45:36.158Z,67.11
2018-05-18T19:50:29.457Z,68.02
2018-05-18T19:55:23.515Z,68.39
2018-05-18T20:00:16.828Z,67.59
2018-05-18T20:05:10.927Z,68.81
2018-05-18T20:10:05.005Z,68.67
2018-05-18T20:14:58.311Z,68.94
2018-05-18T20:19:52.465Z,69.35
2018-05-18T20:24:46.498Z,69.89
2018-05-18T20:29:40.590Z,69.02
2018-05-18T20:34:34.667Z,69.40
2018-05-18T20:39:27.994Z,70.57
2018-05-18T20:44:22.072Z,70.79
2018-05-18T20:49:15.421Z,69.61
2018-05-18T20:54:09.502Z,70.58
2018-05-18T20:59:02.826Z,70.48
2018-05-18T21:03:56.132Z,70.84
2018-05-18T21:08:49.430Z,71.89
2018-05-18T21:13:42.735Z,72.12
2018-05-18T21:18:36.803Z,72.39
2018-05-18T21:23:30.691Z,72.68
2018-05-18T21:28:24.002Z,71.54
2018-05-18T21:33:18.074Z,71.98
2018-05-18T21:38:11.377Z,71.25
2018-05-18T21:43:05.451Z,72.63
2018-05-18T21:47:58.753Z,72.29
2018-05-18T21:52:52.816Z,72.53
2018-05-18T21:57:46.122Z,72.68
2018-05-18T22:02:40.227Z,73.31
2018-05-18T22:07:33.523Z,73.95
2018-05-18T22:12:26.867Z,73.29
2018-05-18T22:17:20.934Z,73.35
2018-05-18T22:22:14.296Z,73.73
2018-05-18T22:27:07.623Z,74.28
2018-05-18T22:32:01.708Z,75.00
2018-05-18T22:36:55.783Z,73.97
2018-05-18T22:41:49.083Z,74.87
2018-05-18T22:46:42.399Z,74.91
2018-05-18T22:51:35.733Z,74.70
2018-05-18T22:56:29.787Z,74.54
2018-05-18T23:01:23.079Z,75.08
2018-05-18T23:06:16.402Z,74.38
2018-05-18T23:11:09.703Z,73.98
2018-05-18T23:16:02.972Z,74.47
2018-05-18T23:20:56.266Z,74.38
2018-05-18T23:25:49.641Z,75.35
2018-05-18T23:30:42.909Z,74.52
2018-05-18T23:35:36.223Z,74.84
2018-05-18T23:40:29.553Z,75.22
2018-05-18T23:45:22.855Z,75.12
2018-05-18T23:50:17.030Z,74.58
2018-05-18T23:55:10.323Z,74.14
